Kasane, Botswana

7:18 PM CAT on September 20, 2014 (GMT +0200)
Livingstone | Change Station
CLOSE
Current Station
Airport
Location: Livingstone,
Elevation: 3235 ft
Nearby Weather Stations

Elev 3235 ft 17.82 °S, 25.82 °E | Updated 2 hours ago

Haze
Haze
91 °F
Feels Like 91 °F
N
13
Wind Variable Wind from ESE

Today
High -- | Low -- °F
--% Chance of Precip.
Yesterday
High -- | Low -- °F
Precip. -- in
6:10 AM 6:15 PM
Waning Crescent, 11% visible
Pressure 29.98 in
Visibility 4.3 miles
Clouds Few 10000 ft
Dew Point 39 °F
Humidity 16%
Rainfall 0.00 in
Snow Depth Not available.
UV 1 out of 12
Pollen Not available.
Air Quality Not available.
Flu Activity Not available.
METAR FLLI 201500Z 12011KT 7000 HZ FEW100 33/04 Q1015

More Conditions Fewer Conditions

Pressure 29.98 in
Visibility 4.3 miles
Clouds Few 10000 ft
Dew Point 39 °F
Humidity 16%
Rainfall 0.00 in
Snow Depth Not available.
UV 1 out of 12
Pollen Not available.
Air Quality Not available.
Flu Activity Not available.
METAR FLLI 201500Z 12011KT 7000 HZ FEW100 33/04 Q1015

More Conditions Fewer Conditions

10-Day Weather Forecast

Almanac

Astronomy

Sep. 20, 2014 Rise Set
Actual Time 6:10 AM CAT 6:15 PM CAT
Civil Twilight 5:49 AM CAT 6:36 PM CAT
Nautical Twilight 5:24 AM CAT 7:02 PM CAT
Astronomical Twilight 4:58 AM CAT 7:27 PM CAT
Moon 3:29 AM CAT 3:18 PM CAT
Length of Visible Light 12h 47m
Length of Day
12h 04m
Tomorrow will be 1m 1s longer.
Waning Crescent, 11% of the Moon is Illuminated
Today
Waning Crescent
Sep 24
New
Oct 1
First Quarter
Oct 8
Full
Oct 15
Last Quarter

Today's Extremes

Country Highs Country Lows

Community

WunderPhotos

Upload Photos

1,754,906 photos uploaded!

Nearby

Snow Depth

Not available.

Earthquake Activity

City Distance Mag. Time & Date
No recent earthquake activity has been reported nearby.
Minimum magnitude displayed is 2.5.

Coastal Water Temperatures

Place Temperature
No Stations Reporting

Nearby Weather Stations